Time;durP1;ratioP1;P1;durP2;ratioP2;P2;SDS_P1;SDS_P2;PMS_P1;PMS_P2;Temp;Humidity;BMP_temperature;BMP_pressure;BME280_temperature;BME280_humidity;BME280_pressure;Samples;Min_cycle;Max_cycle;Signal;HPM_P1;HPM_P2
2021/12/19 00:08:59;;;;;;;9.50;5.65;;;7.70;99.90;;;;;;5037820;28;20054;-66
2021/12/19 00:11:26;;;;;;;12.48;6.10;;;7.70;99.90;;;;;;5019993;28;20049;-67
2021/12/19 00:13:53;;;;;;;11.00;6.22;;;7.70;99.90;;;;;;5020634;28;20057;-65
2021/12/19 00:16:19;;;;;;;12.20;6.28;;;7.70;99.90;;;;;;5037550;28;20458;-66
2021/12/19 00:18:47;;;;;;;13.05;6.72;;;7.70;99.90;;;;;;5037859;28;20106;-66
2021/12/19 00:21:17;;;;;;;14.80;7.50;;;7.70;99.90;;;;;;5037586;28;20457;-66
2021/12/19 00:23:44;;;;;;;12.13;7.72;;;7.70;99.90;;;;;;5037527;28;20115;-66
2021/12/19 00:26:11;;;;;;;15.63;7.65;;;7.70;99.90;;;;;;5019966;28;20046;-66
2021/12/19 00:28:36;;;;;;;15.40;8.25;;;7.70;99.90;;;;;;5038878;28;20052;-65
2021/12/19 00:31:03;;;;;;;17.10;8.75;;;7.70;99.90;;;;;;5040038;28;20048;-67
2021/12/19 00:33:29;;;;;;;18.65;9.60;;;7.70;99.90;;;;;;5057384;28;20076;-65
2021/12/19 00:35:55;;;;;;;19.63;9.65;;;7.70;99.90;;;;;;5057289;28;20865;-66
2021/12/19 00:38:20;;;;;;;15.52;8.60;;;7.80;99.90;;;;;;5057320;28;20045;-67
2021/12/19 00:40:46;;;;;;;19.17;10.10;;;7.70;99.90;;;;;;5032202;28;20049;-66
2021/12/19 00:43:24;;;;;;;20.77;9.50;;;7.70;99.90;;;;;;5036381;28;20050;-66
2021/12/19 00:45:52;;;;;;;17.05;8.70;;;7.70;99.90;;;;;;5019930;28;20470;-66
2021/12/19 00:48:18;;;;;;;16.70;9.15;;;7.80;99.90;;;;;;5037177;28;20049;-66
2021/12/19 00:50:44;;;;;;;16.33;7.88;;;7.70;99.90;;;;;;5037310;28;20055;-65
2021/12/19 00:53:09;;;;;;;11.07;6.60;;;7.70;99.90;;;;;;5019473;28;20107;-67
2021/12/19 00:55:37;;;;;;;11.85;6.57;;;7.80;99.90;;;;;;5020110;28;20054;-67
2021/12/19 00:58:03;;;;;;;10.38;4.85;;;7.70;99.90;;;;;;5037331;28;20045;-67
2021/12/19 01:00:32;;;;;;;8.82;4.30;;;7.80;99.90;;;;;;5019326;28;20041;-67
2021/12/19 01:02:59;;;;;;;7.25;3.20;;;7.80;99.90;;;;;;5036424;28;20053;-65
2021/12/19 01:05:28;;;;;;;5.22;2.88;;;7.70;99.90;;;;;;5036890;28;20070;-67
2021/12/19 01:07:54;;;;;;;6.82;2.65;;;7.70;99.90;;;;;;5019726;28;20064;-67
2021/12/19 01:10:19;;;;;;;7.30;2.60;;;7.70;99.90;;;;;;5036151;28;20056;-66
2021/12/19 01:12:45;;;;;;;8.50;2.50;;;7.70;99.90;;;;;;5025023;28;20042;-66
2021/12/19 01:15:13;;;;;;;4.85;2.55;;;7.70;99.90;;;;;;5036504;28;20073;-67
2021/12/19 01:17:40;;;;;;;7.35;2.97;;;7.70;99.90;;;;;;5019444;28;20076;-67
2021/12/19 01:20:12;;;;;;;7.35;2.63;;;7.70;99.90;;;;;;5036845;28;20089;-65
2021/12/19 01:22:37;;;;;;;4.35;2.33;;;7.70;99.90;;;;;;5036797;28;20072;-66
2021/12/19 01:25:03;;;;;;;4.78;2.08;;;7.60;99.90;;;;;;5019591;28;20057;-66
2021/12/19 01:27:29;;;;;;;5.38;2.00;;;7.60;99.90;;;;;;5046396;28;20196;-66
2021/12/19 01:29:55;;;;;;;7.00;1.70;;;7.60;99.90;;;;;;5056093;28;20378;-67
2021/12/19 01:32:20;;;;;;;3.65;1.67;;;7.60;99.90;;;;;;5056723;28;20045;-66
2021/12/19 01:34:46;;;;;;;5.40;1.88;;;7.60;99.90;;;;;;5039041;28;20106;-66
2021/12/19 01:37:13;;;;;;;2.90;1.80;;;7.50;99.90;;;;;;5056262;28;20045;-65
2021/12/19 01:39:39;;;;;;;4.25;1.85;;;7.50;99.90;;;;;;5056259;28;20442;-67
2021/12/19 01:42:08;;;;;;;4.75;1.92;;;7.60;99.90;;;;;;5014702;28;20084;-67
2021/12/19 01:44:34;;;;;;;4.97;1.92;;;7.50;99.90;;;;;;5018494;28;20061;-66
2021/12/19 01:47:00;;;;;;;5.78;2.15;;;7.60;99.90;;;;;;5019039;28;20050;-67
2021/12/19 01:49:25;;;;;;;8.52;2.50;;;7.50;99.90;;;;;;5019128;28;20045;-67
2021/12/19 01:51:51;;;;;;;6.90;1.80;;;7.50;99.90;;;;;;5036598;28;20053;-66
2021/12/19 01:54:17;;;;;;;3.13;1.42;;;7.50;99.90;;;;;;5018630;28;20483;-65
2021/12/19 01:56:42;;;;;;;3.55;1.55;;;7.50;99.90;;;;;;5035957;28;20045;-65
2021/12/19 01:59:10;;;;;;;2.95;1.20;;;7.50;99.90;;;;;;5018072;28;20145;-66
2021/12/19 02:01:44;;;;;;;2.60;1.20;;;7.50;99.90;;;;;;5036137;28;20076;-67
2021/12/19 02:04:12;;;;;;;2.22;1.10;;;7.50;99.90;;;;;;5035611;28;20501;-65
2021/12/19 02:06:38;;;;;;;4.30;1.30;;;7.50;99.90;;;;;;5035963;28;20084;-67
2021/12/19 02:09:07;;;;;;;3.53;1.20;;;7.50;99.90;;;;;;5035670;28;20374;-67
2021/12/19 02:11:34;;;;;;;4.28;1.30;;;7.50;99.90;;;;;;5034997;28;20041;-65
2021/12/19 02:14:00;;;;;;;4.47;1.40;;;7.40;99.90;;;;;;5018225;28;20046;-66
2021/12/19 02:16:26;;;;;;;7.18;1.60;;;7.50;99.90;;;;;;5035634;28;20041;-66
2021/12/19 02:18:52;;;;;;;3.35;1.83;;;7.40;99.90;;;;;;5035582;28;20390;-67
2021/12/19 02:21:18;;;;;;;6.20;1.98;;;7.30;99.90;;;;;;5033357;28;20050;-65
2021/12/19 02:23:43;;;;;;;5.30;2.47;;;7.40;99.90;;;;;;5016149;28;20068;-65
2021/12/19 02:26:09;;;;;;;5.30;2.58;;;7.40;99.90;;;;;;5035224;28;20049;-66
2021/12/19 02:28:34;;;;;;;7.60;2.55;;;7.40;99.90;;;;;;5036219;28;20512;-66
2021/12/19 02:31:00;;;;;;;5.10;2.85;;;7.40;99.90;;;;;;5037575;28;20372;-66
2021/12/19 02:33:31;;;;;;;5.32;2.38;;;7.50;99.90;;;;;;5037599;28;20047;-67
2021/12/19 02:36:06;;;;;;;5.38;2.00;;;7.50;99.90;;;;;;5055157;28;20048;-65
2021/12/19 02:39:17;;;;;;;5.43;1.83;;;7.50;99.90;;;;;;5055129;28;20044;-67
2021/12/19 02:49:35;;;;;;;3.03;1.30;;;7.40;99.90;;;;;;5035132;28;20053;-66
2021/12/19 02:52:03;;;;;;;3.90;1.50;;;7.40;99.90;;;;;;5017550;28;20363;-65
2021/12/19 02:54:29;;;;;;;3.28;1.40;;;7.30;99.90;;;;;;5035015;28;20053;-66
2021/12/19 02:56:55;;;;;;;4.40;1.48;;;7.30;99.90;;;;;;5017555;28;20052;-67
2021/12/19 02:59:21;;;;;;;5.18;1.58;;;7.30;99.90;;;;;;5034946;28;20096;-67
2021/12/19 03:01:47;;;;;;;2.70;1.30;;;7.30;99.90;;;;;;5017129;28;20045;-66
2021/12/19 03:04:13;;;;;;;3.90;1.40;;;7.30;99.90;;;;;;5017351;28;20099;-66
2021/12/19 03:06:44;;;;;;;4.63;1.50;;;7.30;99.90;;;;;;5018016;28;20053;-66
2021/12/19 03:09:11;;;;;;;4.32;1.50;;;7.30;99.90;;;;;;5034703;28;20433;-65
2021/12/19 03:19:42;;;;;;;5.53;1.50;;;7.30;99.90;;;;;;5017306;28;20073;-67
2021/12/19 03:22:07;;;;;;;3.65;1.38;;;7.20;99.90;;;;;;5013977;28;20081;-67
2021/12/19 03:24:33;;;;;;;7.05;1.60;;;7.20;99.90;;;;;;5014517;28;20061;-65
2021/12/19 03:26:59;;;;;;;5.60;1.77;;;7.20;99.90;;;;;;5019005;28;20096;-66
2021/12/19 03:29:24;;;;;;;7.10;1.30;;;7.10;99.90;;;;;;5034568;28;20081;-67
2021/12/19 03:31:50;;;;;;;6.85;1.50;;;7.10;99.90;;;;;;5033519;28;20088;-66
2021/12/19 03:34:15;;;;;;;4.10;1.20;;;7.10;99.90;;;;;;5034678;28;20115;-65
2021/12/19 03:36:41;;;;;;;4.90;1.80;;;7.10;99.90;;;;;;5034559;28;20441;-67
2021/12/19 03:39:26;;;;;;;6.38;1.30;;;7.00;99.90;;;;;;5033761;28;20056;-66
2021/12/19 03:41:54;;;;;;;6.07;1.15;;;7.00;99.90;;;;;;5009000;28;20096;-65
2021/12/19 03:44:20;;;;;;;6.05;1.48;;;7.10;99.90;;;;;;5014023;28;20042;-66
2021/12/19 03:46:46;;;;;;;6.68;1.60;;;7.10;99.90;;;;;;5015199;28;20045;-67
2021/12/19 03:49:16;;;;;;;4.00;1.48;;;7.10;99.90;;;;;;5013736;28;20049;-66
2021/12/19 03:51:42;;;;;;;3.63;1.55;;;7.00;99.90;;;;;;5014271;28;20072;-65
2021/12/19 03:54:07;;;;;;;3.33;1.35;;;7.10;99.90;;;;;;5014732;28;20125;-67
2021/12/19 03:56:33;;;;;;;3.88;1.75;;;7.10;99.90;;;;;;5014682;28;20502;-66
2021/12/19 03:58:59;;;;;;;5.50;1.52;;;7.10;99.90;;;;;;5014700;28;20046;-65
2021/12/19 04:01:24;;;;;;;4.63;1.92;;;7.10;99.90;;;;;;5013957;28;20050;-66
2021/12/19 04:03:50;;;;;;;5.78;1.80;;;7.10;99.90;;;;;;5014558;28;20042;-65
2021/12/19 04:06:16;;;;;;;5.18;2.00;;;7.10;99.90;;;;;;5014579;28;20045;-66
2021/12/19 04:08:41;;;;;;;8.27;2.30;;;7.10;99.90;;;;;;4997282;28;20273;-65
2021/12/19 04:11:07;;;;;;;5.07;2.10;;;7.10;99.90;;;;;;5006775;28;20042;-65
2021/12/19 04:13:33;;;;;;;8.65;2.58;;;7.00;99.90;;;;;;5008720;28;20458;-65
2021/12/19 04:15:59;;;;;;;5.97;2.22;;;7.10;99.90;;;;;;5014404;28;20053;-68
2021/12/19 04:18:24;;;;;;;6.20;2.10;;;7.10;99.90;;;;;;5013849;28;20125;-67
2021/12/19 04:20:50;;;;;;;7.25;1.77;;;7.10;99.90;;;;;;5014234;28;20050;-68
2021/12/19 04:23:15;;;;;;;5.30;1.65;;;7.10;99.90;;;;;;5029643;28;20485;-66
2021/12/19 04:25:41;;;;;;;8.88;1.65;;;7.20;99.90;;;;;;5034334;28;20053;-66
2021/12/19 04:28:07;;;;;;;7.38;2.33;;;7.10;99.90;;;;;;5048998;28;20045;-65
2021/12/19 04:30:33;;;;;;;9.90;2.00;;;7.10;99.90;;;;;;5036643;28;20382;-67
2021/12/19 04:33:05;;;;;;;10.60;1.90;;;7.10;99.90;;;;;;5053983;28;20387;-67
2021/12/19 04:35:34;;;;;;;9.90;2.45;;;7.10;99.90;;;;;;5053610;28;20093;-66
2021/12/19 04:40:53;;;;;;;8.90;3.33;;;7.10;99.90;;;;;;5025877;28;20057;-66
2021/12/19 04:59:47;;;;;;;13.27;4.85;;;7.20;99.90;;;;;;5036949;28;20053;-67
2021/12/19 05:02:11;;;;;;;12.45;5.20;;;7.20;99.90;;;;;;5019690;28;20049;-66
2021/12/19 05:15:26;;;;;;;20.42;4.82;;;7.20;99.90;;;;;;5036480;28;20442;-67
2021/12/19 05:17:54;;;;;;;19.42;5.07;;;7.30;99.90;;;;;;5019775;28;20053;-66
2021/12/19 05:20:24;;;;;;;23.13;5.38;;;7.30;99.90;;;;;;5036702;28;20056;-66
2021/12/19 05:22:52;;;;;;;25.67;6.38;;;7.30;99.90;;;;;;5036687;28;20081;-67
2021/12/19 05:25:18;;;;;;;22.27;5.55;;;7.30;99.90;;;;;;5036455;28;20049;-67
2021/12/19 05:27:55;;;;;;;17.98;5.65;;;7.30;99.90;;;;;;5048296;28;20449;-66
2021/12/19 05:30:22;;;;;;;19.83;6.43;;;7.30;99.90;;;;;;5056299;28;20048;-67
2021/12/19 05:32:50;;;;;;;27.35;6.38;;;7.30;99.90;;;;;;5056469;28;20059;-66
2021/12/19 05:35:24;;;;;;;18.25;5.70;;;7.30;99.90;;;;;;5056301;28;20499;-66
2021/12/19 05:46:03;;;;;;;28.08;8.35;;;7.40;99.90;;;;;;5018987;28;20466;-66
2021/12/19 05:48:28;;;;;;;28.80;7.95;;;7.30;99.90;;;;;;5018328;28;20081;-67
2021/12/19 05:50:54;;;;;;;27.65;8.85;;;7.30;99.90;;;;;;5035674;28;20037;-66
2021/12/19 05:53:19;;;;;;;23.38;8.80;;;7.40;99.90;;;;;;5018927;28;20531;-67
2021/12/19 05:55:45;;;;;;;20.05;8.20;;;7.30;99.90;;;;;;5018996;28;20056;-65
2021/12/19 05:58:11;;;;;;;27.33;8.55;;;7.30;99.90;;;;;;5018696;28;20064;-67
2021/12/19 06:00:37;;;;;;;19.70;7.70;;;7.40;99.90;;;;;;5018544;28;20049;-66
2021/12/19 06:03:04;;;;;;;23.33;7.50;;;7.40;99.90;;;;;;5018813;28;20049;-67
2021/12/19 06:05:30;;;;;;;18.67;6.85;;;7.40;99.90;;;;;;5018365;28;20049;-66
2021/12/19 06:07:55;;;;;;;24.52;7.65;;;7.40;99.90;;;;;;5035866;28;20446;-66
2021/12/19 06:10:22;;;;;;;21.25;8.90;;;7.40;99.90;;;;;;5017186;28;20050;-66
2021/12/19 06:12:49;;;;;;;22.13;8.32;;;7.40;99.90;;;;;;5018454;28;20528;-67
2021/12/19 06:15:14;;;;;;;20.50;8.77;;;7.50;99.90;;;;;;5015680;28;20077;-67
2021/12/19 06:17:42;;;;;;;26.60;8.80;;;7.40;99.90;;;;;;5035812;28;20532;-66
2021/12/19 06:20:10;;;;;;;25.63;8.32;;;7.40;99.90;;;;;;5035391;28;20118;-65
2021/12/19 06:22:35;;;;;;;21.27;8.15;;;7.40;99.90;;;;;;5035478;28;20087;-65
2021/12/19 06:25:03;;;;;;;17.98;6.30;;;7.40;99.90;;;;;;5018106;28;20049;-67
2021/12/19 06:27:28;;;;;;;20.48;6.20;;;7.40;99.90;;;;;;5044921;28;20037;-67
2021/12/19 06:29:54;;;;;;;16.92;6.53;;;7.40;99.90;;;;;;5037746;28;20499;-66
2021/12/19 06:32:19;;;;;;;24.70;7.03;;;7.40;99.90;;;;;;5037564;28;20056;-67
2021/12/19 06:34:45;;;;;;;17.90;7.25;;;7.40;99.90;;;;;;5054838;28;20388;-65
2021/12/19 06:37:11;;;;;;;21.77;8.40;;;7.30;99.90;;;;;;5037997;28;20048;-66
2021/12/19 06:39:38;;;;;;;24.08;8.75;;;7.40;99.90;;;;;;5034820;28;20049;-66
2021/12/19 06:42:06;;;;;;;19.08;8.27;;;7.30;99.90;;;;;;5007700;28;20053;-66
2021/12/19 06:44:33;;;;;;;20.95;7.90;;;7.40;99.90;;;;;;5035088;28;20049;-66
2021/12/19 06:46:59;;;;;;;22.60;8.10;;;7.40;99.90;;;;;;5034855;28;20175;-65
2021/12/19 06:49:25;;;;;;;25.73;8.60;;;7.40;99.90;;;;;;5032501;28;20056;-66
2021/12/19 06:51:51;;;;;;;21.80;7.28;;;7.40;99.90;;;;;;5014610;28;20053;-67
2021/12/19 06:54:17;;;;;;;23.73;7.88;;;7.40;99.90;;;;;;5034330;28;20481;-67
2021/12/19 06:56:42;;;;;;;22.10;7.60;;;7.40;99.90;;;;;;5017531;28;20045;-66
2021/12/19 06:59:08;;;;;;;22.27;7.38;;;7.40;99.90;;;;;;5000363;28;20061;-67
2021/12/19 07:01:36;;;;;;;23.48;7.88;;;7.40;99.90;;;;;;5017349;28;20056;-67
2021/12/19 07:04:02;;;;;;;22.60;7.53;;;7.40;99.90;;;;;;5017435;28;20041;-67
2021/12/19 07:06:27;;;;;;;18.42;6.60;;;7.40;99.90;;;;;;5034686;28;20139;-67
2021/12/19 07:08:53;;;;;;;23.88;6.75;;;7.40;99.90;;;;;;5017528;28;20377;-67
2021/12/19 07:11:19;;;;;;;17.35;6.07;;;7.30;99.90;;;;;;5016137;28;20050;-67
2021/12/19 07:13:44;;;;;;;16.42;5.70;;;7.40;99.90;;;;;;5024964;28;20044;-66
2021/12/19 07:16:10;;;;;;;20.17;5.95;;;7.30;99.90;;;;;;5000924;28;20470;-66
2021/12/19 07:18:36;;;;;;;24.98;6.97;;;7.40;99.90;;;;;;5034567;28;20112;-67
2021/12/19 07:21:07;;;;;;;21.17;5.97;;;7.30;99.90;;;;;;5034982;28;20112;-66
2021/12/19 07:23:33;;;;;;;17.90;6.13;;;7.30;99.90;;;;;;5034128;28;20129;-65
2021/12/19 07:25:59;;;;;;;20.88;6.20;;;7.30;99.90;;;;;;5034587;28;20124;-66
2021/12/19 07:28:24;;;;;;;22.30;6.18;;;7.30;99.90;;;;;;5034463;28;20056;-66
2021/12/19 07:30:50;;;;;;;22.10;5.90;;;7.30;99.90;;;;;;5036335;28;20037;-66
2021/12/19 07:33:18;;;;;;;23.63;5.80;;;7.30;99.90;;;;;;5037238;28;20049;-67
2021/12/19 07:35:47;;;;;;;22.25;4.95;;;7.30;99.90;;;;;;5054692;28;20064;-65
2021/12/19 07:38:22;;;;;;;16.42;5.03;;;7.30;99.90;;;;;;5020613;28;20053;-67
2021/12/19 07:40:50;;;;;;;14.98;4.65;;;7.30;99.90;;;;;;5022782;28;20076;-66
2021/12/19 07:43:16;;;;;;;17.73;4.43;;;7.30;99.90;;;;;;5034218;28;20382;-65
2021/12/19 07:45:41;;;;;;;21.42;4.57;;;7.30;99.90;;;;;;5034379;28;20061;-65
2021/12/19 07:48:07;;;;;;;18.73;4.03;;;7.30;99.90;;;;;;5017051;28;20049;-65
2021/12/19 07:50:33;;;;;;;18.17;4.53;;;7.30;99.90;;;;;;5034698;28;20401;-67
2021/12/19 07:52:58;;;;;;;25.35;4.18;;;7.30;99.90;;;;;;5034415;28;20053;-65
2021/12/19 07:55:25;;;;;;;15.88;4.10;;;7.30;99.90;;;;;;5021974;28;20050;-66
2021/12/19 07:57:51;;;;;;;18.58;4.40;;;7.30;99.90;;;;;;5016210;28;20042;-66
2021/12/19 08:00:19;;;;;;;19.67;4.07;;;7.40;99.90;;;;;;5034217;28;20069;-67
2021/12/19 08:02:45;;;;;;;17.10;3.88;;;7.40;99.90;;;;;;5016674;28;20046;-67
2021/12/19 08:05:11;;;;;;;16.02;3.88;;;7.30;99.90;;;;;;5034481;28;20120;-65
2021/12/19 08:07:39;;;;;;;25.35;5.60;;;7.30;99.90;;;;;;5034432;28;20060;-67
2021/12/19 08:12:44;;;;;;;13.80;4.10;;;7.30;99.90;;;;;;5034596;28;20130;-67
2021/12/19 08:15:12;;;;;;;18.08;4.57;;;7.40;99.90;;;;;;5037123;28;20053;-69
2021/12/19 08:17:38;;;;;;;23.90;7.00;;;7.40;99.90;;;;;;5036345;28;20045;-69
2021/12/19 08:20:07;;;;;;;13.40;4.53;;;7.40;99.90;;;;;;5007706;28;20355;-69
2021/12/19 08:22:33;;;;;;;16.15;4.03;;;7.40;99.90;;;;;;5016985;28;20125;-69
2021/12/19 08:24:59;;;;;;;16.33;4.28;;;7.90;99.90;;;;;;5037883;28;20049;-69
2021/12/19 08:27:26;;;;;;;18.15;4.30;;;7.40;99.90;;;;;;5020541;28;20111;-66
2021/12/19 08:29:54;;;;;;;21.30;4.07;;;7.40;99.90;;;;;;5020456;28;20081;-69
2021/12/19 08:32:20;;;;;;;23.20;5.07;;;7.40;99.90;;;;;;5038058;28;20118;-69
2021/12/19 08:34:46;;;;;;;16.23;4.40;;;7.40;99.90;;;;;;5037631;28;20041;-69
2021/12/19 08:37:12;;;;;;;15.00;4.30;;;7.40;99.90;;;;;;5036624;28;20052;-69
2021/12/19 08:39:38;;;;;;;17.63;4.10;;;7.50;99.90;;;;;;5032369;28;20099;-68
2021/12/19 08:42:06;;;;;;;15.70;4.70;;;7.60;99.90;;;;;;5007562;28;20459;-69
2021/12/19 08:44:32;;;;;;;21.75;4.85;;;7.50;99.90;;;;;;5024359;28;20045;-69
2021/12/19 08:46:59;;;;;;;19.17;5.03;;;7.50;99.90;;;;;;5036787;28;20190;-70
2021/12/19 08:49:24;;;;;;;21.67;6.65;;;7.50;99.90;;;;;;5037209;28;20409;-69
2021/12/19 08:51:50;;;;;;;15.45;4.85;;;7.50;99.90;;;;;;5019993;28;20049;-69
2021/12/19 08:54:16;;;;;;;22.85;5.20;;;7.50;99.90;;;;;;5037386;28;20044;-69
2021/12/19 08:56:41;;;;;;;17.95;4.55;;;7.60;99.90;;;;;;5037034;28;20354;-69
2021/12/19 08:59:09;;;;;;;22.67;4.82;;;7.50;99.90;;;;;;5037194;28;20128;-68
2021/12/19 09:01:38;;;;;;;20.90;4.88;;;7.50;99.90;;;;;;5037311;28;20041;-69
2021/12/19 09:04:04;;;;;;;21.83;4.60;;;7.60;99.90;;;;;;5037350;28;20057;-67
2021/12/19 09:06:29;;;;;;;20.55;4.78;;;7.50;99.90;;;;;;5037466;28;20080;-67
2021/12/19 09:08:55;;;;;;;19.65;4.80;;;7.60;99.90;;;;;;5019536;28;20156;-67
2021/12/19 09:11:21;;;;;;;21.55;4.72;;;7.60;99.90;;;;;;5000269;28;20426;-69
2021/12/19 09:13:47;;;;;;;20.80;5.57;;;7.60;99.90;;;;;;4999614;28;20060;-67
2021/12/19 09:16:12;;;;;;;20.45;4.38;;;7.60;99.90;;;;;;5000337;28;20437;-69
2021/12/19 09:18:40;;;;;;;19.40;5.03;;;7.60;99.90;;;;;;5000040;28;20481;-70
2021/12/19 09:21:06;;;;;;;17.83;4.43;;;7.60;99.90;;;;;;5017055;28;20049;-68
2021/12/19 09:23:35;;;;;;;19.88;4.18;;;7.60;99.90;;;;;;5016552;28;20049;-69
2021/12/19 09:26:01;;;;;;;18.58;4.18;;;7.70;99.90;;;;;;5000101;28;20086;-68
2021/12/19 09:28:27;;;;;;;18.67;4.15;;;7.70;99.90;;;;;;5000047;28;20089;-68
2021/12/19 09:30:52;;;;;;;16.45;4.38;;;7.70;99.90;;;;;;5016838;28;20386;-68
2021/12/19 09:33:18;;;;;;;17.40;3.90;;;7.70;99.90;;;;;;4999609;28;20069;-65
2021/12/19 09:35:48;;;;;;;18.13;3.92;;;7.70;99.90;;;;;;4999527;28;20042;-66
2021/12/19 09:38:14;;;;;;;17.73;4.47;;;7.70;99.90;;;;;;4999682;28;20049;-65
2021/12/19 09:40:42;;;;;;;20.20;4.97;;;7.70;99.90;;;;;;5032281;28;20090;-67
2021/12/19 09:46:11;;;;;;;15.57;3.95;;;7.70;99.90;;;;;;4965927;28;20120;-67
2021/12/19 09:48:39;;;;;;;19.45;3.55;;;7.70;99.90;;;;;;5018638;28;20377;-67
2021/12/19 09:51:05;;;;;;;16.88;3.22;;;7.70;99.90;;;;;;5036261;28;20050;-66
2021/12/19 09:53:30;;;;;;;13.90;2.97;;;7.70;99.90;;;;;;5036124;28;20141;-69
2021/12/19 09:55:56;;;;;;;16.85;3.50;;;7.70;99.90;;;;;;5018614;28;20371;-68
2021/12/19 09:58:22;;;;;;;16.17;3.40;;;7.70;99.90;;;;;;5035939;28;20053;-69
2021/12/19 10:00:47;;;;;;;16.95;3.40;;;7.70;99.90;;;;;;5036111;28;20049;-68
2021/12/19 10:03:15;;;;;;;19.52;4.03;;;7.70;99.90;;;;;;5018594;28;20073;-70
2021/12/19 10:05:41;;;;;;;13.35;3.65;;;7.70;99.90;;;;;;5035908;28;20124;-67
2021/12/19 10:08:10;;;;;;;19.77;3.65;;;7.70;99.90;;;;;;5036062;28;20135;-69
2021/12/19 10:10:47;;;;;;;16.80;3.97;;;7.70;99.90;;;;;;5031785;28;20155;-69
2021/12/19 10:13:14;;;;;;;17.77;4.18;;;7.70;99.90;;;;;;5035220;28;20049;-69
2021/12/19 10:15:45;;;;;;;14.85;4.05;;;7.80;99.90;;;;;;5018405;28;20103;-68
2021/12/19 10:18:16;;;;;;;25.15;4.28;;;7.80;99.90;;;;;;5016928;28;20057;-68
2021/12/19 10:21:00;;;;;;;13.23;3.40;;;7.80;99.90;;;;;;5017794;28;20046;-69
2021/12/19 10:23:35;;;;;;;15.90;3.80;;;7.90;99.90;;;;;;4998535;28;20057;-69
2021/12/19 10:26:08;;;;;;;23.75;4.55;;;7.90;99.90;;;;;;5015784;28;20480;-70
2021/12/19 10:28:54;;;;;;;22.38;4.10;;;7.90;99.90;;;;;;5006113;28;20041;-69
2021/12/19 10:31:21;;;;;;;20.30;3.88;;;8.00;99.90;;;;;;5033185;28;20049;-70
2021/12/19 10:33:48;;;;;;;19.92;3.50;;;8.00;99.90;;;;;;5034865;28;20369;-68
2021/12/19 10:36:14;;;;;;;19.55;3.75;;;8.00;99.90;;;;;;5035518;28;20465;-69
2021/12/19 10:38:51;;;;;;;17.02;3.83;;;8.00;99.90;;;;;;5035331;28;20053;-69
2021/12/19 10:41:20;;;;;;;20.73;4.63;;;8.00;99.90;;;;;;5035370;28;20041;-69
2021/12/19 10:44:01;;;;;;;14.57;3.38;;;8.00;99.90;;;;;;5035552;28;20037;-70
2021/12/19 10:46:28;;;;;;;13.40;3.05;;;8.00;99.90;;;;;;5035590;28;20477;-69
2021/12/19 10:48:54;;;;;;;18.00;3.83;;;8.00;99.90;;;;;;5017651;28;20140;-69
2021/12/19 10:51:20;;;;;;;15.95;3.40;;;8.00;99.90;;;;;;5035100;28;20133;-68
2021/12/19 10:53:53;;;;;;;10.95;2.55;;;8.00;99.90;;;;;;5035199;28;20107;-68
2021/12/19 10:56:26;;;;;;;16.08;3.03;;;8.00;99.90;;;;;;5018356;28;20061;-69
2021/12/19 10:58:58;;;;;;;14.32;2.83;;;8.10;99.90;;;;;;5015673;28;20049;-69
2021/12/19 11:01:44;;;;;;;38.50;3.75;;;8.10;99.90;;;;;;5015388;28;20089;-68
2021/12/19 11:04:12;;;;;;;14.98;3.20;;;8.10;99.90;;;;;;5015139;28;20414;-69
2021/12/19 11:06:46;;;;;;;12.15;3.08;;;8.10;99.90;;;;;;5013955;28;20045;-69
2021/12/19 11:09:22;;;;;;;17.75;3.15;;;8.10;99.90;;;;;;5031594;28;20046;-67
2021/12/19 11:11:49;;;;;;;13.52;3.05;;;8.20;99.90;;;;;;5016340;28;20072;-68
2021/12/19 11:14:16;;;;;;;16.13;2.85;;;8.10;99.90;;;;;;5016371;28;20079;-67
2021/12/19 11:16:43;;;;;;;17.63;2.70;;;8.20;99.90;;;;;;5014865;28;20102;-69
2021/12/19 11:19:08;;;;;;;14.60;3.40;;;8.20;99.90;;;;;;5031182;28;20056;-68
2021/12/19 11:21:35;;;;;;;12.90;2.83;;;8.20;99.90;;;;;;5000166;28;20045;-69
2021/12/19 11:24:05;;;;;;;16.42;3.03;;;8.20;99.90;;;;;;5016742;28;20053;-69
2021/12/19 11:26:31;;;;;;;17.65;3.78;;;8.20;99.90;;;;;;5016361;28;20124;-68
2021/12/19 11:28:57;;;;;;;17.48;3.22;;;8.20;99.90;;;;;;5017045;28;20132;-69
2021/12/19 11:31:27;;;;;;;16.23;3.97;;;8.20;99.90;;;;;;5032168;28;20399;-68
2021/12/19 11:34:16;;;;;;;20.55;3.33;;;8.20;99.90;;;;;;5024962;28;20054;-67
2021/12/19 11:36:47;;;;;;;17.38;3.47;;;8.30;99.90;;;;;;5035700;28;20045;-66
2021/12/19 11:39:16;;;;;;;17.40;3.15;;;8.30;99.90;;;;;;4997316;28;20057;-69
2021/12/19 11:42:09;;;;;;;13.55;3.10;;;8.30;99.90;;;;;;5002192;28;20054;-69
2021/12/19 11:44:48;;;;;;;14.07;3.40;;;8.30;99.90;;;;;;4997404;28;20124;-69
2021/12/19 11:47:35;;;;;;;15.18;3.58;;;8.30;99.90;;;;;;5003015;28;20050;-70
2021/12/19 11:50:27;;;;;;;15.55;3.30;;;8.30;99.90;;;;;;4986752;28;20046;-69
2021/12/19 11:52:58;;;;;;;20.42;5.05;;;8.30;99.90;;;;;;4987370;28;20125;-69
2021/12/19 11:55:24;;;;;;;21.70;3.97;;;8.70;99.90;;;;;;4990696;28;20046;-69
2021/12/19 11:58:08;;;;;;;12.80;3.53;;;8.40;99.90;;;;;;4989291;28;20054;-69
2021/12/19 12:01:01;;;;;;;22.58;3.78;;;8.40;99.90;;;;;;4989699;28;20479;-69
2021/12/19 12:03:54;;;;;;;19.67;3.22;;;8.40;99.90;;;;;;5003782;28;20494;-69
2021/12/19 12:06:24;;;;;;;15.40;3.63;;;8.40;99.90;;;;;;4999666;28;20054;-68
2021/12/19 12:09:04;;;;;;;16.92;3.53;;;8.40;99.90;;;;;;4994935;28;20042;-69
2021/12/19 12:11:30;;;;;;;22.42;3.83;;;8.40;99.90;;;;;;5039179;28;20110;-69
2021/12/19 12:14:24;;;;;;;21.92;3.95;;;8.40;99.90;;;;;;5018080;28;20086;-69
2021/12/19 12:16:59;;;;;;;18.92;3.60;;;8.40;99.90;;;;;;5039133;28;20140;-69
2021/12/19 12:19:49;;;;;;;19.00;3.20;;;8.40;99.90;;;;;;5032394;28;20131;-70
2021/12/19 12:25:27;;;;;;;21.88;3.80;;;8.40;99.90;;;;;;5031882;28;20050;-69
2021/12/19 12:28:02;;;;;;;19.42;4.90;;;8.40;99.90;;;;;;5036353;28;20052;-69
2021/12/19 12:30:52;;;;;;;26.23;4.35;;;8.40;99.90;;;;;;5034595;28;20120;-68
2021/12/19 12:33:26;;;;;;;18.63;3.58;;;8.40;99.90;;;;;;5028656;28;20065;-67
2021/12/19 12:35:54;;;;;;;24.35;4.40;;;8.50;99.90;;;;;;5017934;28;20103;-66
2021/12/19 12:38:21;;;;;;;24.52;4.40;;;8.40;99.90;;;;;;5035007;28;20042;-66
2021/12/19 12:43:21;;;;;;;22.75;5.05;;;8.50;99.90;;;;;;5037258;28;20052;-68
2021/12/19 12:46:04;;;;;;;19.80;3.88;;;8.50;99.90;;;;;;5018119;28;20095;-67
2021/12/19 12:48:41;;;;;;;21.38;3.95;;;8.50;99.90;;;;;;5018578;28;20093;-68
2021/12/19 12:51:28;;;;;;;23.02;3.33;;;8.50;99.90;;;;;;5016905;28;20053;-68
2021/12/19 12:53:58;;;;;;;23.02;4.07;;;8.50;99.90;;;;;;5001679;28;20369;-68
2021/12/19 12:56:34;;;;;;;22.95;3.72;;;8.50;99.90;;;;;;5015366;28;20056;-69
2021/12/19 12:59:00;;;;;;;21.75;3.88;;;8.60;99.90;;;;;;5017124;28;20049;-70
2021/12/19 13:01:44;;;;;;;22.63;4.28;;;8.50;99.90;;;;;;5036854;28;20049;-67
2021/12/19 13:04:27;;;;;;;22.50;4.18;;;8.40;99.90;;;;;;5008809;28;20064;-66
2021/12/19 13:07:02;;;;;;;31.13;4.07;;;8.40;99.90;;;;;;5031517;28;20065;-68
2021/12/19 13:09:40;;;;;;;23.80;5.07;;;8.40;99.90;;;;;;5034329;28;20504;-68
2021/12/19 13:12:06;;;;;;;21.85;3.83;;;8.30;99.90;;;;;;5029447;28;20140;-68
2021/12/19 13:14:34;;;;;;;20.20;3.40;;;8.30;99.90;;;;;;5018452;28;20459;-68
2021/12/19 13:17:12;;;;;;;25.20;3.97;;;8.30;99.90;;;;;;5031541;28;20049;-69
2021/12/19 13:19:56;;;;;;;18.95;4.53;;;8.30;99.90;;;;;;5029947;28;20045;-68
2021/12/19 13:22:35;;;;;;;16.67;3.00;;;8.30;99.90;;;;;;5015692;28;20053;-68
2021/12/19 13:25:08;;;;;;;23.80;4.30;;;8.30;99.90;;;;;;5001544;28;20076;-69
2021/12/19 13:27:36;;;;;;;21.48;4.72;;;8.30;99.90;;;;;;5031549;28;20055;-68
2021/12/19 13:30:08;;;;;;;21.38;3.78;;;8.20;99.90;;;;;;5016943;28;20125;-67
2021/12/19 13:32:37;;;;;;;28.25;4.22;;;8.20;99.90;;;;;;5014348;28;20052;-67
2021/12/19 13:35:18;;;;;;;24.08;3.53;;;8.20;99.90;;;;;;5037728;28;20045;-68
2021/12/19 13:38:08;;;;;;;17.92;3.60;;;8.30;99.90;;;;;;5015461;28;20060;-67
2021/12/19 13:40:38;;;;;;;23.35;3.60;;;8.30;99.90;;;;;;5007379;28;20132;-68
2021/12/19 13:43:12;;;;;;;21.17;3.70;;;8.30;99.90;;;;;;4999693;28;20084;-69
2021/12/19 13:45:44;;;;;;;24.48;4.03;;;8.30;99.90;;;;;;5017955;28;20076;-67
2021/12/19 13:48:20;;;;;;;18.52;4.68;;;8.30;99.90;;;;;;5035741;28;20057;-68
2021/12/19 13:50:49;;;;;;;21.67;3.67;;;8.30;99.90;;;;;;5018869;28;20068;-68
2021/12/19 13:53:17;;;;;;;17.52;3.47;;;8.30;99.90;;;;;;5035799;28;20118;-69
2021/12/19 13:55:49;;;;;;;14.90;3.10;;;8.40;99.90;;;;;;5035919;28;20092;-68
2021/12/19 13:58:16;;;;;;;21.27;3.17;;;8.40;99.90;;;;;;5036583;28;20041;-70
2021/12/19 14:00:45;;;;;;;23.23;3.45;;;8.40;99.90;;;;;;5018962;28;20045;-69
2021/12/19 14:03:11;;;;;;;21.23;3.60;;;8.40;99.90;;;;;;5016423;28;20063;-69
2021/12/19 14:05:54;;;;;;;19.38;4.03;;;8.40;99.90;;;;;;5020041;28;20060;-67
2021/12/19 14:08:30;;;;;;;25.10;4.30;;;8.40;99.90;;;;;;5022050;28;20048;-69
2021/12/19 14:11:20;;;;;;;18.75;2.97;;;8.40;99.90;;;;;;5038216;28;20045;-67
2021/12/19 14:13:59;;;;;;;18.70;3.80;;;8.40;99.90;;;;;;5039136;28;20510;-65